Time;durP1;ratioP1;P1;durP2;ratioP2;P2;SDS_P1;SDS_P2;PMS_P1;PMS_P2;Temp;Humidity;BMP_temperature;BMP_pressure;BME280_temperature;BME280_humidity;BME280_pressure;Samples;Min_cycle;Max_cycle;Signal;HPM_P1;HPM_P2
2022/05/04 00:01:39;;;;;;;10.80;8.98;;;10.80;99.90;;;10.02;100.00;97578.03;5006044;28;20342;-71
2022/05/04 00:04:06;;;;;;;12.60;9.90;;;10.70;99.90;;;9.98;100.00;97592.03;5004036;28;20050;-71
2022/05/04 00:06:33;;;;;;;15.05;10.57;;;10.60;99.90;;;9.92;100.00;97589.66;5000313;28;20077;-71
2022/05/04 00:09:00;;;;;;;11.13;9.55;;;10.50;99.90;;;9.84;100.00;97596.00;5003924;28;20487;-71
2022/05/04 00:11:27;;;;;;;17.45;11.30;;;10.50;99.90;;;9.79;100.00;97600.53;5001049;28;20060;-71
2022/05/04 00:13:54;;;;;;;13.60;8.30;;;10.40;99.90;;;9.84;100.00;97597.75;5007705;28;20133;-71
2022/05/04 00:16:21;;;;;;;12.50;8.55;;;10.40;99.90;;;9.73;100.00;97590.38;4990381;28;20145;-71
2022/05/04 00:18:48;;;;;;;13.23;9.73;;;10.40;99.90;;;9.77;100.00;97585.94;5005305;28;20684;-71
2022/05/04 00:21:16;;;;;;;14.63;11.43;;;10.30;99.90;;;9.62;100.00;97577.88;5004517;28;20126;-71
2022/05/04 00:23:43;;;;;;;12.20;9.70;;;10.30;99.90;;;9.49;100.00;97584.41;5004025;28;20051;-71
2022/05/04 00:26:10;;;;;;;11.43;9.82;;;10.20;99.90;;;9.47;100.00;97586.22;5000201;28;20125;-71
2022/05/04 00:28:37;;;;;;;12.52;9.73;;;10.00;99.90;;;9.33;100.00;97597.09;5003942;28;20077;-71
2022/05/04 00:31:04;;;;;;;14.77;10.35;;;9.90;99.90;;;9.20;100.00;97596.69;5003737;28;20535;-71
2022/05/04 00:33:31;;;;;;;12.60;10.25;;;9.90;99.90;;;9.16;100.00;97595.13;4987207;28;20042;-71
2022/05/04 00:35:58;;;;;;;12.60;10.55;;;9.80;99.90;;;9.13;100.00;97590.06;5004907;28;20129;-71
2022/05/04 00:38:25;;;;;;;14.90;10.60;;;9.80;99.90;;;9.10;100.00;97582.41;5003456;28;20133;-71
2022/05/04 00:40:52;;;;;;;13.38;10.75;;;9.70;99.90;;;9.08;100.00;97584.22;5003686;28;20125;-71
2022/05/04 00:43:24;;;;;;;15.05;11.23;;;9.60;99.90;;;8.96;100.00;97589.81;5020980;28;20204;-71
2022/05/04 00:45:52;;;;;;;11.63;9.07;;;9.60;99.90;;;8.99;100.00;97597.50;5003490;28;20117;-71
2022/05/04 00:48:19;;;;;;;11.13;8.98;;;9.60;99.90;;;9.03;100.00;97593.03;4987135;28;20322;-71
2022/05/04 00:50:48;;;;;;;11.73;10.10;;;9.60;99.90;;;8.90;100.00;97593.50;5006930;28;20093;-71
2022/05/04 00:53:20;;;;;;;12.43;8.63;;;9.60;99.90;;;9.07;100.00;97592.03;5003962;28;20514;-71
2022/05/04 00:55:47;;;;;;;13.85;10.50;;;9.60;99.90;;;9.05;100.00;97596.41;5000311;28;20088;-71
2022/05/04 01:01:02;;;;;;;8.85;7.68;;;9.60;99.90;;;8.98;100.00;97593.19;5003251;28;20136;-71
2022/05/04 01:03:30;;;;;;;11.27;8.98;;;9.60;99.90;;;8.90;100.00;97592.66;5004143;28;20077;-70
2022/05/04 01:05:57;;;;;;;9.60;8.40;;;9.50;99.90;;;8.86;100.00;97589.31;4999660;28;20180;-72
2022/05/04 01:08:24;;;;;;;13.90;10.55;;;9.40;99.90;;;8.81;100.00;97592.97;5015482;28;20097;-72
2022/05/04 01:10:51;;;;;;;10.27;9.23;;;9.40;99.90;;;8.66;100.00;97591.75;4985838;28;20137;-72
2022/05/04 01:13:20;;;;;;;9.18;8.00;;;9.30;99.90;;;8.67;100.00;97594.31;5002165;28;20064;-72
2022/05/04 01:15:48;;;;;;;8.93;8.02;;;9.30;99.90;;;8.74;100.00;97589.75;4988948;28;20046;-72
2022/05/04 01:18:16;;;;;;;10.75;8.63;;;9.30;99.90;;;8.63;100.00;97584.94;5015678;28;20046;-72
2022/05/04 01:20:43;;;;;;;12.63;9.95;;;9.20;99.90;;;8.65;100.00;97593.50;5005534;28;20049;-72
2022/05/04 01:23:11;;;;;;;12.15;9.80;;;9.20;99.90;;;8.70;100.00;97589.00;4985429;28;20069;-72
2022/05/04 01:25:38;;;;;;;13.05;9.63;;;9.20;99.90;;;8.53;100.00;97578.38;4998751;28;20145;-72
2022/05/04 01:28:05;;;;;;;11.20;9.35;;;9.20;99.90;;;8.37;100.00;97591.00;4994961;28;20075;-72
2022/05/04 01:30:34;;;;;;;9.98;8.95;;;9.10;99.90;;;8.37;100.00;97591.81;5002936;28;20515;-72
2022/05/04 01:33:02;;;;;;;14.73;11.75;;;9.00;99.90;;;8.29;100.00;97595.56;5008633;28;20462;-72
2022/05/04 01:35:29;;;;;;;14.25;10.48;;;8.90;99.90;;;8.23;100.00;97590.56;5000918;28;20054;-72
2022/05/04 01:37:56;;;;;;;12.32;10.38;;;8.90;99.90;;;8.23;100.00;97585.41;4973175;28;20081;-72
2022/05/04 01:40:23;;;;;;;11.88;10.65;;;8.90;99.90;;;8.12;100.00;97580.63;4999998;28;20045;-72
2022/05/04 01:42:50;;;;;;;12.45;9.15;;;8.80;99.90;;;8.04;100.00;97587.75;4983660;28;20088;-72
2022/05/04 01:45:17;;;;;;;10.98;9.25;;;8.80;99.90;;;7.96;100.00;97594.03;5004672;28;20054;-72
2022/05/04 01:47:48;;;;;;;11.70;10.35;;;8.80;99.90;;;8.06;100.00;97591.16;4996464;28;20080;-72
2022/05/04 01:50:16;;;;;;;10.32;9.05;;;8.70;99.90;;;8.11;100.00;97592.66;5002742;28;20131;-72
2022/05/04 01:52:44;;;;;;;10.77;8.82;;;8.70;99.90;;;8.20;100.00;97586.34;4999317;28;20507;-72
2022/05/04 01:55:11;;;;;;;11.98;9.65;;;8.70;99.90;;;8.13;100.00;97585.72;5002701;28;20045;-72
2022/05/04 01:57:38;;;;;;;11.05;9.88;;;8.70;99.90;;;8.01;100.00;97586.13;4988113;28;20069;-72
2022/05/04 02:00:07;;;;;;;11.32;10.05;;;8.70;99.90;;;8.03;100.00;97583.47;5003479;28;20140;-72
2022/05/04 02:02:35;;;;;;;13.60;10.02;;;8.60;99.90;;;8.14;100.00;97583.97;5005265;28;20038;-73
2022/05/04 02:05:05;;;;;;;10.88;9.05;;;8.60;99.90;;;8.22;100.00;97578.56;5000901;28;20045;-72
2022/05/04 02:07:35;;;;;;;12.20;8.32;;;8.60;99.90;;;8.19;100.00;97569.16;5004109;28;20123;-72
2022/05/04 02:10:04;;;;;;;9.40;7.25;;;8.70;99.90;;;7.99;100.00;97576.72;4983047;28;20169;-72
2022/05/04 02:12:34;;;;;;;9.95;6.88;;;8.60;99.90;;;8.03;100.00;97576.59;4999002;28;20129;-72
2022/05/04 02:15:03;;;;;;;11.70;8.63;;;8.50;99.90;;;7.91;100.00;97579.53;4988712;28;20099;-72
2022/05/04 02:17:30;;;;;;;15.77;12.00;;;8.40;99.90;;;7.68;100.00;97586.28;5002990;28;20389;-72
2022/05/04 02:19:57;;;;;;;13.85;10.23;;;8.40;99.90;;;7.75;100.00;97584.34;5001602;28;20132;-72
2022/05/04 02:22:24;;;;;;;12.43;10.73;;;8.30;99.90;;;7.71;100.00;97593.94;5002779;28;20473;-72
2022/05/04 02:24:52;;;;;;;14.30;11.52;;;8.30;99.90;;;7.62;100.00;97585.63;4998333;28;20425;-72
2022/05/04 02:27:19;;;;;;;16.08;11.27;;;8.30;99.90;;;7.49;100.00;97591.16;5016086;28;20540;-72
2022/05/04 02:29:46;;;;;;;14.73;11.80;;;8.20;99.90;;;7.37;100.00;97591.53;5004734;28;20105;-72
2022/05/04 02:32:13;;;;;;;13.15;10.98;;;8.10;99.90;;;7.42;100.00;97588.81;5004720;28;20077;-72
2022/05/04 02:40:12;;;;;;;13.20;11.35;;;8.10;99.90;;;7.39;100.00;97597.50;4990485;28;20195;-72
2022/05/04 02:42:39;;;;;;;15.88;10.43;;;8.00;99.90;;;7.25;100.00;97591.88;5000810;28;20133;-72
2022/05/04 02:45:07;;;;;;;13.77;9.38;;;8.00;99.90;;;7.33;100.00;97600.25;5003820;28;20284;-72
2022/05/04 02:47:34;;;;;;;11.95;9.00;;;8.00;99.90;;;7.32;100.00;97593.38;5000164;28;20128;-72
2022/05/04 02:50:01;;;;;;;13.27;9.45;;;8.00;99.90;;;7.35;100.00;97595.91;5004864;28;20080;-72
2022/05/04 02:52:28;;;;;;;12.70;8.98;;;8.00;99.90;;;7.40;100.00;97593.19;4983647;28;20112;-72
2022/05/04 02:54:55;;;;;;;11.80;7.85;;;8.00;99.90;;;7.38;100.00;97587.22;5001997;28;20132;-72
2022/05/04 02:57:22;;;;;;;10.75;8.23;;;8.00;99.90;;;7.38;100.00;97597.53;5001606;28;20456;-72
2022/05/04 02:59:49;;;;;;;11.75;8.52;;;8.00;99.90;;;7.38;100.00;97590.63;5003427;28;20064;-72
2022/05/04 03:02:29;;;;;;;10.05;8.10;;;7.90;99.90;;;7.38;100.00;97585.47;4986489;28;20053;-72
2022/05/04 03:05:06;;;;;;;11.77;10.02;;;7.90;99.90;;;7.28;100.00;97590.06;5001910;28;20048;-72
2022/05/04 03:07:33;;;;;;;17.17;10.38;;;7.90;99.90;;;7.18;100.00;97590.38;4999139;28;20073;-72
2022/05/04 03:10:01;;;;;;;12.43;10.80;;;7.80;99.90;;;7.15;100.00;97595.63;5000286;28;20049;-72
2022/05/04 03:12:28;;;;;;;13.80;11.90;;;7.80;99.90;;;6.96;100.00;97591.00;4984840;28;20782;-72
2022/05/04 03:14:55;;;;;;;14.50;11.52;;;7.70;99.90;;;6.79;100.00;97593.19;5003458;28;20092;-72
2022/05/04 03:17:23;;;;;;;13.77;10.65;;;7.60;99.90;;;6.88;100.00;97598.09;5005746;28;20073;-72
2022/05/04 03:19:50;;;;;;;15.80;13.18;;;7.60;99.90;;;6.74;100.00;97597.63;4987894;28;20418;-73
2022/05/04 03:22:17;;;;;;;17.48;12.10;;;7.50;99.90;;;6.69;100.00;97596.00;4981156;28;20050;-72
2022/05/04 03:24:44;;;;;;;13.85;11.93;;;7.50;99.90;;;6.81;100.00;97592.25;5004695;28;20132;-72
2022/05/04 03:27:12;;;;;;;14.25;10.90;;;7.50;99.90;;;6.77;100.00;97598.38;4999809;28;20085;-72
2022/05/04 03:29:39;;;;;;;15.20;10.75;;;7.50;99.90;;;6.75;100.00;97594.13;4983980;28;20595;-72
2022/05/04 03:32:08;;;;;;;13.57;10.07;;;7.50;99.90;;;6.77;100.00;97605.25;5005387;28;20118;-71
2022/05/04 03:34:35;;;;;;;11.82;7.82;;;7.50;99.90;;;6.93;100.00;97603.97;5008340;28;20479;-71
2022/05/04 03:37:03;;;;;;;11.93;8.57;;;7.60;99.90;;;6.78;100.00;97606.97;5006779;28;20136;-71
2022/05/04 03:39:30;;;;;;;12.80;8.93;;;7.60;99.90;;;6.72;100.00;97599.38;5007806;28;20066;-73
2022/05/04 03:41:57;;;;;;;11.20;9.02;;;7.60;99.90;;;6.73;100.00;97606.22;4987543;28;20136;-73
2022/05/04 03:44:25;;;;;;;10.23;8.30;;;7.50;99.90;;;6.61;100.00;97604.81;5003245;28;20082;-73
2022/05/04 03:46:53;;;;;;;14.55;10.32;;;7.50;99.90;;;6.58;100.00;97604.91;4988329;28;20555;-73
2022/05/04 03:49:23;;;;;;;12.63;9.55;;;7.40;99.90;;;6.57;100.00;97601.50;4984978;28;20053;-71
2022/05/04 03:51:52;;;;;;;12.95;9.82;;;7.30;99.90;;;6.60;100.00;97601.41;4987727;28;20077;-73
2022/05/04 03:54:19;;;;;;;10.25;8.18;;;7.40;99.90;;;6.44;100.00;97600.97;4986348;28;20092;-72
2022/05/04 03:56:46;;;;;;;11.23;9.07;;;7.40;99.90;;;6.51;100.00;97604.22;5008791;28;20132;-73
2022/05/04 03:59:14;;;;;;;12.48;8.68;;;7.30;99.90;;;6.55;100.00;97603.28;5002891;28;20642;-70
2022/05/04 04:01:41;;;;;;;11.98;9.93;;;7.20;99.90;;;6.52;100.00;97602.50;5006416;28;20121;-71
2022/05/04 04:04:08;;;;;;;11.13;8.27;;;7.20;99.90;;;6.50;100.00;97599.97;4986394;28;20120;-71
2022/05/04 04:06:37;;;;;;;13.40;9.05;;;7.20;99.90;;;6.51;100.00;97605.97;5008557;28;20042;-73
2022/05/04 04:09:04;;;;;;;11.85;9.23;;;7.30;99.90;;;6.60;100.00;97606.56;5006277;28;20080;-73
2022/05/04 04:11:32;;;;;;;13.77;9.43;;;7.30;99.90;;;6.66;100.00;97608.13;5005757;28;20482;-72
2022/05/04 04:13:59;;;;;;;13.93;9.68;;;7.30;99.90;;;6.74;100.00;97608.78;5004798;28;20089;-70
2022/05/04 04:16:26;;;;;;;11.63;8.80;;;7.40;99.90;;;6.82;100.00;97612.00;5003281;28;20073;-72
2022/05/04 04:18:54;;;;;;;9.43;8.18;;;7.50;99.90;;;6.93;100.00;97609.13;5003876;28;20096;-70
2022/05/04 04:24:07;;;;;;;12.85;10.35;;;7.60;99.90;;;6.93;100.00;97606.53;5002691;28;20046;-72
2022/05/04 04:26:37;;;;;;;13.35;10.05;;;7.70;99.90;;;7.07;100.00;97617.34;4969809;28;20264;-73
2022/05/04 04:29:05;;;;;;;10.57;8.85;;;7.80;99.90;;;6.98;100.00;97616.72;5019545;28;20136;-71
2022/05/04 04:31:32;;;;;;;9.63;7.10;;;7.80;99.90;;;6.91;100.00;97609.19;4989867;28;20051;-71
2022/05/04 04:34:01;;;;;;;9.75;6.20;;;7.80;99.90;;;7.12;100.00;97609.47;5000813;28;20571;-71
2022/05/04 04:36:29;;;;;;;9.93;6.07;;;7.80;99.90;;;7.19;100.00;97610.16;5003861;28;20120;-73
2022/05/04 04:38:56;;;;;;;7.93;6.47;;;7.80;99.90;;;7.21;100.00;97611.78;5003823;28;20078;-73
2022/05/04 04:41:23;;;;;;;11.68;8.05;;;7.90;99.90;;;7.24;100.00;97613.44;5004130;28;20050;-70
2022/05/04 04:43:50;;;;;;;9.30;6.82;;;7.90;99.90;;;7.34;100.00;97614.84;5002207;28;20142;-70
2022/05/04 04:46:17;;;;;;;8.52;7.47;;;8.00;99.90;;;7.39;100.00;97612.13;5003463;28;20179;-71
2022/05/04 04:48:44;;;;;;;9.40;8.07;;;8.10;99.90;;;7.43;100.00;97617.16;5001890;28;20116;-71
2022/05/04 04:51:12;;;;;;;10.73;7.28;;;8.20;99.90;;;7.43;100.00;97611.16;5006559;28;20137;-70
2022/05/04 04:53:39;;;;;;;9.80;7.60;;;8.30;99.90;;;7.52;100.00;97613.47;4985512;28;20070;-72
2022/05/04 04:56:07;;;;;;;8.30;6.90;;;8.30;99.90;;;7.70;100.00;97619.81;5012652;28;20089;-72
2022/05/04 04:58:34;;;;;;;11.52;6.60;;;8.40;99.90;;;7.79;100.00;97614.38;5000207;28;20081;-73
2022/05/04 05:01:01;;;;;;;9.90;6.80;;;8.50;99.90;;;7.88;100.00;97614.09;5005964;28;20132;-73
2022/05/04 05:03:29;;;;;;;9.60;6.53;;;8.60;99.90;;;8.10;100.00;97603.09;5003272;28;20050;-71
2022/05/04 05:05:56;;;;;;;7.40;5.82;;;8.80;99.90;;;8.33;100.00;97605.75;4998354;28;20401;-73
2022/05/04 05:08:23;;;;;;;6.63;5.75;;;8.80;99.90;;;8.51;100.00;97603.50;5000583;28;20120;-71
2022/05/04 05:10:50;;;;;;;6.18;5.13;;;8.90;99.90;;;8.47;100.00;97602.72;4985389;28;20530;-72
2022/05/04 05:13:17;;;;;;;7.38;5.88;;;9.00;99.90;;;8.48;100.00;97613.91;5018496;28;20146;-72
2022/05/04 05:18:31;;;;;;;8.00;6.00;;;9.30;99.90;;;8.59;100.00;97609.22;4982362;28;20085;-72
2022/05/04 05:20:58;;;;;;;11.60;7.43;;;9.30;99.90;;;8.68;100.00;97605.50;5001428;28;20050;-72
2022/05/04 05:23:26;;;;;;;11.32;7.50;;;9.30;99.90;;;8.65;100.00;97608.19;4983959;28;20145;-72
2022/05/04 05:25:52;;;;;;;9.27;6.85;;;9.30;99.90;;;8.79;100.00;97604.22;5016655;28;20080;-72
2022/05/04 05:28:20;;;;;;;9.82;7.30;;;9.30;99.90;;;8.78;100.00;97599.06;5002532;28;20054;-72
2022/05/04 05:30:47;;;;;;;9.68;7.03;;;9.50;99.90;;;8.94;100.00;97602.84;4998888;28;20046;-72
2022/05/04 05:33:14;;;;;;;9.52;6.95;;;9.60;99.90;;;9.03;100.00;97604.22;5003056;28;20133;-72
2022/05/04 05:35:41;;;;;;;12.77;9.52;;;9.60;99.90;;;8.86;100.00;97602.25;4999310;28;20054;-72
2022/05/04 05:38:10;;;;;;;12.63;9.00;;;9.70;99.90;;;9.04;100.00;97595.56;5000204;28;20073;-72
2022/05/04 05:40:38;;;;;;;14.95;11.57;;;9.80;99.90;;;9.03;100.00;97599.06;5014395;28;20042;-72
2022/05/04 05:43:05;;;;;;;15.15;10.30;;;9.80;99.90;;;9.31;100.00;97598.06;4988387;28;20050;-72
2022/05/04 05:45:32;;;;;;;11.18;9.85;;;9.90;99.90;;;9.16;100.00;97597.72;5000919;28;20047;-72
2022/05/04 05:48:00;;;;;;;14.82;10.35;;;10.10;99.90;;;9.26;100.00;97603.41;5002593;28;20050;-72
2022/05/04 05:50:27;;;;;;;13.38;10.20;;;10.10;99.90;;;9.41;100.00;97597.66;4983011;28;20432;-72
2022/05/04 05:52:54;;;;;;;12.60;9.45;;;10.20;99.90;;;9.71;100.00;97604.31;4997176;28;20140;-72
2022/05/04 05:55:21;;;;;;;13.85;10.30;;;10.40;99.90;;;9.64;100.00;97598.53;4999597;28;20054;-73
2022/05/04 05:57:48;;;;;;;14.50;9.93;;;10.50;99.90;;;9.80;100.00;97598.78;4998785;28;20064;-72
2022/05/04 06:00:16;;;;;;;12.95;9.32;;;10.70;99.90;;;9.79;100.00;97595.34;4999973;28;20389;-72
2022/05/04 06:02:45;;;;;;;14.40;9.73;;;10.80;99.90;;;9.84;100.00;97600.34;5003962;28;20088;-71
2022/05/04 06:05:12;;;;;;;12.10;9.65;;;11.00;99.90;;;9.87;100.00;97597.63;5003208;28;20073;-71
2022/05/04 06:07:40;;;;;;;12.52;9.93;;;11.10;99.90;;;10.17;100.00;97600.75;4997896;28;20110;-71
2022/05/04 06:10:07;;;;;;;14.23;10.05;;;11.20;99.90;;;10.08;100.00;97593.34;4988885;28;20119;-71
2022/05/04 06:12:35;;;;;;;13.52;10.13;;;11.40;99.90;;;10.46;100.00;97585.75;5003543;28;20148;-70
2022/05/04 06:15:02;;;;;;;15.40;9.80;;;11.70;99.90;;;10.76;100.00;97593.16;5005472;28;20089;-70
2022/05/04 06:17:29;;;;;;;15.70;9.73;;;11.90;99.90;;;10.86;100.00;97589.25;4984750;28;20129;-71
2022/05/04 06:19:56;;;;;;;16.58;10.38;;;12.10;99.90;;;10.87;100.00;97591.78;5016877;28;20060;-71
2022/05/04 06:22:23;;;;;;;10.45;8.27;;;12.20;99.90;;;11.50;100.00;97591.56;4998377;28;20096;-70
2022/05/04 06:24:50;;;;;;;11.93;8.50;;;12.30;99.90;;;11.60;100.00;97593.75;4997985;28;20133;-72
2022/05/04 06:27:17;;;;;;;14.88;9.18;;;12.50;99.90;;;11.58;100.00;97591.19;5003496;28;20095;-71
2022/05/04 06:35:15;;;;;;;10.57;8.65;;;;;;;12.12;100.00;97571.31;5003534;28;20145;-71
2022/05/04 06:37:43;;;;;;;12.02;7.57;;;13.00;99.90;;;12.20;100.00;97576.16;4997117;28;20054;-71
2022/05/04 06:40:10;;;;;;;14.27;7.82;;;13.10;99.90;;;12.54;100.00;97572.72;4989438;28;20137;-70
2022/05/04 06:42:38;;;;;;;11.57;8.98;;;13.30;99.90;;;12.50;100.00;97572.97;4996821;28;20061;-71
2022/05/04 06:45:06;;;;;;;13.70;8.93;;;13.40;99.90;;;12.33;100.00;97572.00;5003654;28;20486;-72
2022/05/04 06:47:33;;;;;;;16.60;10.85;;;13.60;99.90;;;12.44;100.00;97581.06;5000507;28;20046;-71
2022/05/04 06:50:00;;;;;;;12.98;8.50;;;13.70;99.90;;;12.90;100.00;97568.28;5002391;28;20160;-71
2022/05/04 06:52:27;;;;;;;11.90;8.23;;;13.80;99.90;;;12.97;100.00;97572.25;5001401;28;20088;-71
2022/05/04 06:54:54;;;;;;;10.80;6.32;;;13.80;99.90;;;13.40;100.00;97570.00;4996168;28;20196;-71
2022/05/04 06:57:21;;;;;;;8.65;5.95;;;14.00;99.90;;;13.39;100.00;97571.78;5001497;28;20092;-71
2022/05/04 06:59:49;;;;;;;9.65;5.47;;;14.00;99.90;;;13.44;100.00;97574.13;5001099;28;20129;-71
2022/05/04 07:02:18;;;;;;;9.40;6.03;;;14.10;99.90;;;13.75;100.00;97575.06;5002439;28;20108;-71
2022/05/04 07:04:45;;;;;;;9.18;6.15;;;14.30;99.90;;;13.74;100.00;97578.59;5001592;28;20100;-71
2022/05/04 07:07:12;;;;;;;7.63;5.72;;;14.40;99.90;;;13.77;100.00;97574.03;5001175;28;20541;-71
2022/05/04 07:09:39;;;;;;;7.85;6.07;;;14.50;99.90;;;13.91;100.00;97575.03;5002100;28;20077;-71
2022/05/04 07:12:09;;;;;;;7.20;5.22;;;14.60;99.90;;;13.85;100.00;97576.25;5001725;28;20088;-70
2022/05/04 07:14:36;;;;;;;7.88;5.45;;;14.60;99.90;;;14.05;100.00;97579.47;5000274;28;20053;-70
2022/05/04 07:17:03;;;;;;;7.00;5.47;;;14.70;99.90;;;13.73;100.00;97577.78;5004734;28;20552;-71
2022/05/04 07:19:30;;;;;;;9.00;5.90;;;14.70;99.90;;;13.96;100.00;97575.66;5005574;28;20050;-71
2022/05/04 07:21:58;;;;;;;10.43;5.80;;;14.70;99.90;;;13.89;100.00;97576.91;5007740;28;20050;-71
2022/05/04 07:24:24;;;;;;;6.97;5.18;;;14.70;99.90;;;13.92;100.00;97569.75;5005406;28;20109;-71
2022/05/04 07:26:51;;;;;;;7.05;5.15;;;14.80;99.90;;;14.29;100.00;97578.09;5002783;28;20591;-70
2022/05/04 07:29:19;;;;;;;7.30;4.75;;;14.80;99.90;;;14.23;100.00;97571.47;4969287;28;20554;-70
2022/05/04 07:31:46;;;;;;;8.27;6.00;;;15.00;99.90;;;14.31;100.00;97576.25;4987018;28;20092;-72
2022/05/04 07:34:14;;;;;;;8.82;6.00;;;15.10;99.90;;;14.49;100.00;97570.88;5000730;28;20081;-70
2022/05/04 07:36:42;;;;;;;12.00;7.63;;;15.30;99.90;;;14.87;100.00;97573.00;4989527;28;20158;-70
2022/05/04 07:42:21;;;;;;;13.20;6.97;;;15.50;99.90;;;15.07;100.00;97575.25;5004080;28;20157;-72
2022/05/04 07:44:41;;;;;;;7.75;5.25;;;15.90;99.90;;;15.31;100.00;97569.47;5003351;28;20109;-72
2022/05/04 07:47:08;;;;;;;8.02;6.05;;;16.00;99.90;;;14.89;100.00;97566.75;5002265;28;20104;-72
2022/05/04 07:49:35;;;;;;;7.47;6.00;;;15.90;99.90;;;15.10;100.00;97566.38;5002661;28;20054;-72
2022/05/04 07:52:03;;;;;;;9.68;5.90;;;15.90;99.90;;;15.16;100.00;97566.03;5003355;28;20105;-72
2022/05/04 07:54:30;;;;;;;9.27;5.95;;;16.00;99.90;;;14.63;100.00;97566.53;5000410;28;20058;-72
2022/05/04 07:56:57;;;;;;;8.65;6.28;;;16.10;99.90;;;14.69;100.00;97564.50;5003388;28;20492;-72
2022/05/04 07:59:24;;;;;;;9.80;5.50;;;16.00;99.90;;;15.06;100.00;97569.19;5000248;28;20073;-72
2022/05/04 08:04:37;;;;;;;11.07;6.82;;;16.10;99.90;;;14.97;100.00;97568.94;5011896;28;20046;-72
2022/05/04 08:07:04;;;;;;;9.00;5.35;;;16.00;99.90;;;15.24;100.00;97566.41;5001004;28;20133;-72
2022/05/04 08:09:36;;;;;;;9.00;5.55;;;16.00;99.90;;;15.32;100.00;97569.38;4985056;28;20206;-72
2022/05/04 08:12:06;;;;;;;10.82;5.78;;;16.20;99.90;;;15.16;100.00;97572.09;5003947;28;20164;-72
2022/05/04 08:14:33;;;;;;;8.82;5.75;;;16.30;99.90;;;15.26;100.00;97578.44;5003429;28;20118;-72
2022/05/04 08:17:01;;;;;;;7.53;5.50;;;16.40;99.90;;;15.67;100.00;97575.03;5002464;28;20419;-72
2022/05/04 08:19:28;;;;;;;9.13;6.40;;;16.60;99.90;;;15.54;100.00;97575.91;4971493;28;20050;-72
2022/05/04 08:21:56;;;;;;;12.70;6.78;;;16.60;99.90;;;15.54;100.00;97571.50;5000911;28;20085;-72
2022/05/04 08:24:24;;;;;;;10.25;6.72;;;16.90;99.90;;;15.44;100.00;97571.25;4998476;28;20050;-72
2022/05/04 08:26:51;;;;;;;9.13;4.88;;;17.00;99.90;;;16.19;100.00;97570.84;4983675;28;20065;-72
2022/05/04 08:29:18;;;;;;;9.82;6.82;;;17.10;99.90;;;15.97;100.00;97568.81;5003567;28;20088;-72
2022/05/04 08:31:45;;;;;;;10.60;6.05;;;17.20;99.90;;;16.19;100.00;97573.47;5002083;28;20074;-72
2022/05/04 08:34:12;;;;;;;8.45;5.97;;;17.40;99.90;;;15.96;100.00;97574.97;5001448;28;20054;-72
2022/05/04 08:36:40;;;;;;;10.32;5.50;;;17.40;99.90;;;16.62;100.00;97572.41;5000281;28;20250;-72
2022/05/04 08:39:09;;;;;;;11.07;6.28;;;17.50;99.90;;;16.35;100.00;97573.28;5002995;28;20054;-72
2022/05/04 08:41:41;;;;;;;12.93;5.07;;;17.40;99.90;;;16.78;100.00;97574.84;5004649;28;20085;-72
2022/05/04 08:44:11;;;;;;;8.82;4.68;;;17.70;99.90;;;17.53;100.00;97575.75;4999174;28;20520;-72
2022/05/04 08:46:43;;;;;;;7.38;4.85;;;18.10;99.90;;;17.89;100.00;97573.25;5000894;28;20747;-72
2022/05/04 08:49:12;;;;;;;11.07;5.87;;;18.50;99.90;;;17.63;100.00;97570.69;5005798;28;20141;-72
2022/05/04 08:51:40;;;;;;;8.55;5.57;;;18.60;99.90;;;17.90;100.00;97570.53;5003684;28;20058;-72
2022/05/04 08:54:09;;;;;;;7.18;4.90;;;18.80;99.90;;;18.90;100.00;97568.38;4999572;28;20056;-72
2022/05/04 08:56:37;;;;;;;9.20;4.97;;;19.20;99.90;;;19.49;100.00;97569.94;5000906;28;20141;-71
2022/05/04 08:59:05;;;;;;;7.38;5.45;;;;;;;19.22;100.00;97567.69;4988259;28;20050;-71
2022/05/04 09:01:37;;;;;;;8.27;3.72;;;19.70;99.90;;;20.29;100.00;97553.00;4997176;28;20145;-71
2022/05/04 09:04:06;;;;;;;6.72;5.78;;;20.10;99.90;;;19.39;100.00;97559.31;4988127;28;20558;-71
2022/05/04 09:06:42;;;;;;;7.78;3.85;;;20.10;99.90;;;20.12;100.00;97553.56;5001134;28;20128;-71
2022/05/04 09:09:12;;;;;;;10.60;5.22;;;20.40;99.90;;;20.17;100.00;97556.66;5002072;28;20046;-71
2022/05/04 09:11:44;;;;;;;7.57;5.63;;;20.50;99.90;;;20.09;100.00;97559.88;4985719;28;20062;-71
2022/05/04 09:14:20;;;;;;;6.88;5.05;;;20.50;99.90;;;20.86;100.00;97557.00;4999184;28;20100;-71
2022/05/04 09:16:48;;;;;;;5.75;3.70;;;20.80;99.90;;;22.48;100.00;97548.16;5017494;28;20046;-71
2022/05/04 09:19:17;;;;;;;6.53;4.30;;;21.30;99.90;;;21.21;100.00;97555.81;5000478;28;20138;-71
2022/05/04 09:21:48;;;;;;;5.93;4.43;;;21.30;99.80;;;22.37;100.00;97548.28;4999767;28;20050;-71
2022/05/04 09:24:26;;;;;;;7.80;5.13;;;21.60;97.50;;;21.16;100.00;97551.88;5000850;28;20047;-71
2022/05/04 09:26:57;;;;;;;8.27;4.60;;;21.60;96.70;;;22.47;100.00;97549.97;5017582;28;20104;-71
2022/05/04 09:29:35;;;;;;;5.15;3.15;;;21.70;97.40;;;23.13;100.00;97545.69;4998067;28;20082;-70
2022/05/04 09:32:29;;;;;;;6.90;5.18;;;22.10;97.70;;;22.11;100.00;97543.53;5001305;28;20061;-70
2022/05/04 09:34:56;;;;;;;8.05;4.15;;;22.00;94.60;;;23.02;100.00;97546.69;4998171;28;20137;-70
2022/05/04 09:45:52;;;;;;;5.78;3.42;;;23.20;93.70;;;24.27;100.00;97543.50;5000300;28;20120;-70
2022/05/04 09:48:31;;;;;;;4.93;3.45;;;23.20;93.60;;;24.88;100.00;97544.47;4995938;28;20073;-71
2022/05/04 09:51:07;;;;;;;5.68;3.90;;;23.60;93.40;;;24.02;100.00;97547.72;4997134;28;20559;-71
2022/05/04 09:53:36;;;;;;;10.25;4.80;;;24.00;97.20;;;23.76;100.00;97543.13;5000997;28;20132;-70
2022/05/04 09:56:03;;;;;;;14.27;4.95;;;23.70;95.20;;;23.38;100.00;97545.00;5002323;28;20052;-71
2022/05/04 09:58:31;;;;;;;6.75;3.47;;;23.50;96.60;;;24.28;100.00;97528.41;4997948;28;20050;-70
2022/05/04 10:00:59;;;;;;;6.35;4.10;;;23.80;95.30;;;23.85;100.00;97538.75;5001197;28;20050;-70
2022/05/04 10:03:27;;;;;;;5.88;4.05;;;23.70;94.50;;;22.59;100.00;97541.88;4999779;28;20057;-70
2022/05/04 10:05:59;;;;;;;7.95;4.30;;;23.50;94.30;;;21.86;100.00;97537.81;4988717;28;20056;-70
2022/05/04 10:08:27;;;;;;;4.97;3.33;;;23.10;93.40;;;22.00;100.00;97544.50;4999660;28;20240;-71
2022/05/04 10:10:54;;;;;;;5.05;3.70;;;22.70;95.10;;;21.10;100.00;97545.34;4999465;28;20140;-70
2022/05/04 10:13:22;;;;;;;7.97;3.33;;;22.60;94.80;;;21.20;100.00;97540.94;5018487;28;20141;-70
2022/05/04 10:15:53;;;;;;;9.75;4.30;;;22.20;95.60;;;22.24;100.00;97535.38;4995131;28;20464;-70
2022/05/04 10:18:29;;;;;;;5.30;2.80;;;22.20;94.80;;;22.87;100.00;97529.56;5011288;28;20539;-70
2022/05/04 10:21:17;;;;;;;5.30;3.63;;;22.70;94.80;;;23.00;100.00;97530.09;4998821;28;20816;-70
2022/05/04 10:23:53;;;;;;;5.72;3.22;;;22.90;94.90;;;23.77;100.00;97526.28;4985882;28;20144;-70
2022/05/04 10:26:38;;;;;;;4.30;2.97;;;23.50;98.10;;;24.16;97.84;97515.38;5014859;28;20160;-70
2022/05/04 10:30:35;;;;;;;5.72;2.92;;;24.00;98.10;;;24.46;98.48;97520.44;5001581;28;20145;-70
2022/05/04 10:32:37;;;;;;;6.07;3.83;;;24.20;97.80;;;25.30;93.72;97511.03;4981611;28;20208;-71
2022/05/04 10:35:33;;;;;;;4.55;3.38;;;24.60;95.70;;;24.97;94.37;97513.50;4998548;28;20147;-70
2022/05/04 10:38:00;;;;;;;10.57;6.63;;;24.90;93.30;;;24.98;95.24;97505.38;4998943;28;20085;-71
2022/05/04 10:40:38;;;;;;;6.60;3.40;;;25.00;92.90;;;25.00;91.14;97511.38;5003228;28;20050;-71
2022/05/04 10:43:16;;;;;;;7.40;2.88;;;24.90;89.30;;;25.71;92.11;97503.19;4981914;28;20129;-71
2022/05/04 10:45:46;;;;;;;3.40;2.40;;;25.50;89.90;;;26.47;90.01;97505.59;5001458;28;20144;-71
2022/05/04 10:48:20;;;;;;;8.60;2.90;;;25.90;82.60;;;25.98;88.45;97497.63;4997100;28;20087;-71
2022/05/04 10:50:53;;;;;;;7.07;3.72;;;26.00;80.90;;;25.66;88.50;97501.03;4999307;28;20050;-71
2022/05/04 10:53:27;;;;;;;4.15;2.67;;;25.70;80.00;;;25.73;89.73;97496.72;4996435;28;20516;-71
2022/05/04 10:56:13;;;;;;;5.05;2.15;;;25.70;80.70;;;27.53;88.15;97485.06;5003044;28;20081;-72